Station: Strathalbyn

  Atmospheric Gas Attenuation - ITU Rec 676-11   --------------- db/100km ---------------
Date Time Temp RH % AH g/m3 Dew Point Wind Direction Speed kph Gust kph Barometer mB Rainfall Since 9am 24GHz 47GHz 76GHz 122GHz 134GHz 241GHz
25 01:40 12 87 9.27 9.9 7 9 1012.8 0 21.1 27.5 43.5 114.3 109.9 378.4
25 01:30 11.9 87 9.22 9.8 9 11 1012.9 0 21.0 27.5 43.3 113.9 109.3 376.5
25 01:20 12.1 87 9.33 10 11 11 1013.1 0 21.2 27.6 43.7 114.8 110.6 380.9
25 01:10 12.2 87 9.39 10.1 11 11 1013.2 0 21.4 27.7 43.9 115.4 111.3 383.3
25 01:00 12.3 86 9.34 10 11 13 1013.3 0 21.3 27.6 43.6 114.7 110.4 380.4
25 00:50 12.3 86 9.34 10 11 11 1013.4 0 21.3 27.6 43.6 114.7 110.5 380.5
25 00:40 12.2 86 9.28 9.9 9 11 1013.5 0 21.1 27.5 43.4 114.2 109.8 378.1
25 00:30 12.2 86 9.28 9.9 11 13 1013.6 0 21.1 27.5 43.5 114.2 109.8 378.1
25 00:20 12.3 85 9.23 9.9 11 11 1013.8 0 21.0 27.4 43.2 113.5 109.0 375.3
25 00:10 12.4 85 9.29 10 13 13 1014 0 21.1 27.5 43.4 114.0 109.7 377.7
25 00:00 12.6 84 9.29 10 13 13 1014.2 0 21.1 27.4 43.3 113.8 109.4 376.8
24 23:50 12.8 85 9.52 10.3 13 13 1014.4 0 21.6 27.8 44.2 116.1 112.3 387.0
24 23:40 12.7 84 9.35 10.1 11 13 1014.6 0 21.3 27.5 43.5 114.3 110.1 379.4
24 23:30 12.4 83 9.07 9.6 9 11 1014.6 0 20.7 27.1 42.5 111.7 106.7 367.3
24 23:20 12.6 83 9.18 9.8 7 7 1014.7 0 20.9 27.3 42.9 112.6 107.9 371.7
24 23:10 12.7 82 9.13 9.7 6 6 1014.8 0 20.8 27.2 42.6 111.9 107.1 368.8
24 23:00 12.9 82 9.24 9.9 6 7 1014.7 0 21.0 27.3 43.0 112.8 108.3 373.1
24 22:50 13.1 82 9.36 10.1 6 6 1014.9 0 21.3 27.4 43.4 113.9 109.7 378.0
24 22:40 13 81 9.19 9.8 6 6 1015 0 20.9 27.2 42.7 112.2 107.5 370.4
24 22:30 13.1 79 9.02 9.5 0 0 1015 0 20.5 26.9 41.9 110.2 105.1 361.8
24 22:20 13.7 79 9.36 10.1 0 0 1015.3 0 21.2 27.3 43.0 113.1 108.9 375.2
24 22:10 13.8 79 9.41 10.2 0 0 1015.4 0 21.3 27.3 43.2 113.5 109.5 377.1
24 22:00 14.1 79 9.59 10.5 0 0 1015.2 0 21.7 27.5 43.8 115.0 111.5 384.2
24 21:50 14.2 78 9.52 10.4 0 0 1015.2 0 21.5 27.4 43.4 114.1 110.4 380.4
24 21:40 14.5 78 9.7 10.7 4 6 1015.3 0 21.9 27.6 44.0 115.7 112.4 387.5
24 21:30 14.6 77 9.64 10.6 6 6 1015.1 0 21.8 27.4 43.7 114.8 111.4 384.1
24 21:20 14.9 76 9.69 10.7 2 4 1015.2 0 21.9 27.4 43.7 115.0 111.7 385.0
24 21:10 15.3 76 9.92 11.1 7 7 1015.3 0 22.3 27.7 44.5 116.9 114.2 393.9
24 21:00 15.3 76 9.92 11.1 7 9 1015.2 0 22.3 27.7 44.5 116.9 114.2 393.9
24 20:50 15.5 75 9.91 11.1 7 7 1015.3 0 22.3 27.6 44.3 116.5 113.8 392.5
24 20:40 15.8 74 9.96 11.2 7 7 1015.2 0 22.4 27.6 44.3 116.6 114.0 393.3
24 20:30 16 73 9.95 11.2 9 13 1015 0 22.4 27.5 44.2 116.2 113.5 391.8
24 20:20 16.3 72 9.99 11.2 11 11 1015.1 0 22.4 27.5 44.2 116.2 113.7 392.2
24 20:10 16.7 71 10.09 11.4 13 15 1015.1 0 22.6 27.5 44.4 116.7 114.4 394.8
24 20:00 17 69 9.98 11.3 15 17 1015 0 22.4 27.2 43.8 115.0 112.5 388.2
24 19:50 17.4 68 10.08 11.4 19 20 1015 0 22.6 27.3 43.9 115.5 113.2 390.8
24 19:40 17.9 66 10.08 11.5 17 17 1015 0 22.5 27.1 43.7 114.8 112.5 388.4
24 19:30 18.2 65 10.1 11.5 17 20 1014.8 0 22.6 27.1 43.6 114.5 112.3 387.7
24 19:20 18.3 64 10.01 11.4 19 20 1014.8 0 22.4 26.9 43.2 113.4 111.0 383.1
24 19:10 18.8 63 10.15 11.6 15 19 1014.7 0 22.6 27.0 43.4 114.2 112.1 387.0
24 19:00 18.9 62 10.04 11.5 17 20 1014.5 0 22.4 26.7 42.9 112.9 110.5 381.5
24 18:50 18.9 63 10.21 11.7 15 19 1014.5 0 22.8 27.0 43.6 114.7 112.7 389.2
24 18:40 19.5 61 10.24 11.8 17 19 1014.4 0 22.8 26.9 43.4 114.1 112.2 387.6
24 18:30 19.4 60 10.01 11.4 20 26 1014.3 0 22.3 26.5 42.5 111.8 109.4 377.7
24 18:20 19.4 61 10.18 11.7 19 22 1014.4 0 22.7 26.8 43.2 113.6 111.6 385.4
24 18:10 19.7 60 10.19 11.7 20 22 1014.4 0 22.7 26.7 43.1 113.3 111.3 384.4
24 18:00 19.9 58 9.96 11.4 24 32 1014.2 0 22.2 26.3 42.1 110.6 108.0 373.0
24 17:50 20.5 57 10.14 11.7 22 30 1014.3 0 22.5 26.4 42.5 111.6 109.5 378.2
24 17:40 21.1 55 10.13 11.7 22 24 1014.1 0 22.5 26.2 42.1 110.7 108.5 374.9
24 17:30 21.3 55 10.25 11.9 20 28 1014.2 0 22.7 26.4 42.5 111.6 109.8 379.3
24 17:20 20.9 54 9.83 11.3 22 24 1014.3 0 21.8 25.8 41.1 107.9 105.1 362.7
24 17:10 21.1 54 9.95 11.4 20 24 1014.3 0 22.1 26.0 41.4 108.8 106.3 367.0
24 17:00 21.7 53 10.11 11.7 24 33 1014.2 0 22.4 26.0 41.7 109.6 107.5 371.2
24 16:50 21.7 52 9.92 11.4 28 30 1014.1 0 22.0 25.7 41.0 107.7 105.1 362.9
24 16:40 21.6 51 9.67 11 26 30 1014.1 0 21.5 25.4 40.1 105.3 102.1 352.5
24 16:30 22 50 9.7 11.1 26 32 1014.2 0 21.5 25.3 40.0 105.1 102.0 352.1
24 16:20 22.4 48 9.53 10.9 30 33 1014.3 0 21.1 24.9 39.2 102.9 99.4 343.1
24 16:10 22.9 48 9.81 11.3 28 32 1014.3 0 21.7 25.2 40.0 105.0 102.2 352.9
24 16:00 23.4 50 10.51 12.4 22 32 1014.2 0 23.1 26.1 42.3 111.3 110.1 380.6
24 15:50 23.5 46 9.73 11.2 26 32 1014.3 0 21.5 24.9 39.4 103.5 100.4 346.9
24 15:40 23.7 45 9.62 11.1 20 24 1014.4 0 21.3 24.7 38.9 102.2 98.9 341.4
24 15:30 23.9 46 9.95 11.6 22 30 1014.3 0 21.9 25.2 40.0 105.1 102.6 354.4
24 15:20 23.7 44 9.41 10.7 17 22 1014.5 0 20.8 24.4 38.1 100.1 96.4 332.7
24 15:10 24.1 45 9.85 11.4 19 22 1014.6 0 21.7 25.0 39.5 103.9 101.2 349.4
24 15:00 24.7 42 9.51 10.9 19 32 1014.7 0 21.0 24.3 38.0 99.9 96.4 332.7
24 14:50 23.7 43 9.2 10.4 11 17 1014.9 0 20.4 24.1 37.4 98.2 93.9 324.1
24 14:40 23.8 42 9.03 10.1 24 26 1015 0 20.0 23.9 36.7 96.4 91.8 316.7
24 14:30 24.5 42 9.4 10.8 13 24 1015 0 20.8 24.2 37.7 99.1 95.3 329.1
24 14:20 23.6 44 9.36 10.6 15 17 1015.1 0 20.7 24.4 38.0 99.8 96.0 331.2
24 14:10 22.5 46 9.19 10.3 13 19 1015.3 0 20.4 24.5 37.9 99.6 95.3 328.6
24 14:00 22.7 46 9.29 10.5 17 20 1015.4 0 20.6 24.5 38.2 100.3 96.2 332.0
24 13:50 22.3 47 9.28 10.5 17 20 1015.6 0 20.6 24.6 38.4 100.7 96.6 333.3
24 13:40 22.3 48 9.48 10.8 24 28 1015.8 0 21.0 25.0 39.1 102.7 99.1 341.8
24 13:30 22.8 48 9.75 11.2 24 30 1015.9 0 21.6 25.2 39.9 104.7 101.7 351.2
24 13:20 22.1 47 9.17 10.3 24 32 1016.2 0 20.4 24.6 38.1 99.9 95.6 329.6
24 13:10 22.9 46 9.4 10.7 24 28 1016.2 0 20.8 24.7 38.5 101.2 97.4 336.0
24 13:00 23 45 9.25 10.4 22 39 1016.1 0 20.5 24.4 38.0 99.6 95.5 329.3
24 12:50 23.4 42 8.83 9.8 20 26 1016.2 0 19.6 23.7 36.3 95.1 90.0 310.3
24 12:40 22.9 41 8.38 9 13 17 1016.3 0 18.7 23.2 34.9 91.4 85.3 293.8
24 12:30 23.6 43 9.14 10.3 17 24 1016.2 0 20.3 24.1 37.3 97.8 93.4 322.3
24 12:20 23 43 8.84 9.8 17 20 1016.3 0 19.7 23.8 36.5 95.7 90.6 312.3
24 12:10 22.4 41 8.14 8.5 17 22 1016.4 0 18.2 23.0 34.3 89.7 83.1 285.9
24 12:00 22.6 39 7.83 8 13 20 1016.5 0 17.6 22.5 33.1 86.6 79.3 272.7
24 11:50 22.8 41 8.33 8.9 13 17 1016.7 0 18.6 23.2 34.8 91.1 84.9 292.2
24 11:40 23 39 8.02 8.3 17 20 1016.8 0 17.9 22.7 33.6 88.0 81.1 279.0
24 11:30 22.4 39 7.74 7.8 15 24 1016.8 0 17.4 22.4 32.9 86.0 78.5 269.8
24 11:20 22.6 42 8.44 9 13 19 1017 0 18.8 23.4 35.3 92.4 86.4 297.5
24 11:10 22.4 41 8.14 8.5 6 11 1017.1 0 18.2 23.0 34.3 89.8 83.1 286.0
24 11:00 21.6 41 7.78 7.8 11 20 1017 0 17.5 22.7 33.4 87.3 79.8 274.1
24 10:50 21.6 42 7.97 8.1 13 15 1017.1 0 17.9 23.0 34.0 89.1 82.0 281.9
24 10:40 20.9 44 8.01 8.2 9 11 1017.3 0 18.0 23.2 34.5 90.3 83.2 286.0
24 10:30 20.9 45 8.19 8.5 9 17 1017.2 0 18.4 23.5 35.1 92.0 85.3 293.5
24 10:20 20.8 47 8.51 9.1 9 11 1017.4 0 19.1 24.0 36.3 95.2 89.2 307.3
24 10:10 19.9 46 7.9 7.9 9 9 1017.5 0 17.8 23.3 34.5 90.3 82.9 285.0
24 10:00 19.8 47 8.03 8.2 6 11 1017.2 0 18.1 23.5 35.0 91.7 84.6 290.8
24 09:50 18.9 50 8.1 8.3 7 11 1017.4 0 18.3 23.9 35.7 93.4 86.4 297.0
24 09:40 18.4 51 8.02 8.1 2 6 1017.4 0 18.1 23.9 35.6 93.2 86.0 295.5
24 09:30 18.2 52 8.08 8.2 6 9 1017.3 0 18.3 24.0 35.9 94.0 86.9 298.8
24 09:20 18.1 55 8.5 8.9 7 9 1017.6 0 19.2 24.7 37.5 98.4 92.2 317.4
24 09:10 17.5 54 8.05 8.1 9 11 1017.5 0 18.2 24.2 36.1 94.6 87.3 300.1

Last Refresh: 25-Nov-2020 01:45:10

Most of the information presented on this site is sourced from the Bureau of Meteorology.  Copyright in all material sourced from the Bureau of Meteorology resides with the Commonwealth of Australia.